Time;durP1;ratioP1;P1;durP2;ratioP2;P2;SDS_P1;SDS_P2;PMS_P1;PMS_P2;Temp;Humidity;BMP_temperature;BMP_pressure;BME280_temperature;BME280_humidity;BME280_pressure;Samples;Min_cycle;Max_cycle;Signal;HPM_P1;HPM_P2
2022/11/29 04:02:37;;;;;;;;;;;7.90;99.90;;;;;;5255046;23;20304;-64
2022/11/29 04:05:28;;;;;;;;;;;7.90;99.90;;;;;;4963321;28;19977;-65
2022/11/29 04:08:14;;;;;;;;;;;7.90;99.90;;;;;;4934268;29;19927;-64
2022/11/29 04:10:54;;;;;;;;;;;7.90;99.90;;;;;;4937801;29;20026;-64
2022/11/29 04:13:44;;;;;;;;;;;8.00;99.90;;;;;;4918571;29;20013;-64
2022/11/29 04:16:22;;;;;;;;;;;8.00;99.90;;;;;;4900455;29;19931;-63
2022/11/29 04:19:05;;;;;;;;;;;8.00;99.90;;;;;;4934573;29;19982;-63
2022/11/29 04:21:47;;;;;;;;;;;8.00;99.90;;;;;;4915854;29;19926;-64
2022/11/29 04:24:41;;;;;;;;;;;7.90;99.90;;;;;;4908052;29;19993;-64
2022/11/29 04:27:35;;;;;;;;;;;8.00;99.90;;;;;;4909288;29;19983;-63
2022/11/29 04:30:05;;;;;;;;;;;8.00;99.90;;;;;;4898133;29;19931;-64
2022/11/29 04:32:46;;;;;;;;;;;7.90;99.90;;;;;;4912312;29;19962;-65
2022/11/29 04:35:24;;;;;;;;;;;8.00;99.90;;;;;;4920678;29;19926;-64
2022/11/29 04:38:11;;;;;;;;;;;8.00;99.90;;;;;;4915384;29;19927;-63
2022/11/29 04:40:49;;;;;;;;;;;8.00;99.90;;;;;;4884147;29;19931;-64
2022/11/29 04:43:24;;;;;;;;;;;8.00;99.90;;;;;;4914956;29;20305;-64
2022/11/29 04:46:06;;;;;;;;;;;8.00;99.90;;;;;;4914979;29;19931;-65
2022/11/29 04:48:41;;;;;;;;;;;8.00;99.90;;;;;;4920858;29;19927;-63
2022/11/29 04:51:18;;;;;;;;;;;8.00;99.90;;;;;;4910918;29;20362;-64
2022/11/29 04:53:51;;;;;;;;;;;8.10;99.90;;;;;;4932918;29;19931;-63
2022/11/29 04:56:21;;;;;;;;;;;8.10;99.90;;;;;;4914419;29;19934;-63
2022/11/29 04:58:53;;;;;;;;;;;8.10;99.90;;;;;;4912569;29;19934;-64
2022/11/29 05:01:23;;;;;;;;;;;8.10;99.90;;;;;;4914715;29;19934;-64
2022/11/29 05:03:53;;;;;;;;;;;8.10;99.90;;;;;;4911528;29;20390;-63
2022/11/29 05:06:25;;;;;;;;;;;8.10;99.90;;;;;;4935101;29;19978;-63
2022/11/29 05:08:57;;;;;;;;;;;8.10;99.90;;;;;;4909917;29;19934;-63
2022/11/29 05:11:29;;;;;;;;;;;8.10;99.90;;;;;;4909230;29;19927;-64
2022/11/29 05:14:02;;;;;;;;;;;8.10;99.90;;;;;;4915071;29;19934;-65
2022/11/29 05:16:33;;;;;;;;;;;8.10;99.90;;;;;;4908664;29;19926;-63
2022/11/29 05:19:30;;;;;;;;;;;8.10;99.90;;;;;;4905597;29;19930;-63
2022/11/29 05:22:02;;;;;;;;;;;8.10;99.90;;;;;;4837019;29;19935;-64
2022/11/29 05:24:36;;;;;;;;;;;8.20;99.90;;;;;;4902167;29;19927;-64
2022/11/29 05:27:08;;;;;;;;;;;8.20;99.90;;;;;;4907640;29;19927;-64
2022/11/29 05:29:41;;;;;;;;;;;8.10;99.90;;;;;;4929370;29;19935;-63
2022/11/29 05:32:21;;;;;;;;;;;8.20;99.90;;;;;;4912522;29;19935;-64
2022/11/29 05:34:59;;;;;;;;;;;8.10;99.90;;;;;;4935558;29;19927;-65
2022/11/29 05:37:31;;;;;;;;;;;8.20;99.90;;;;;;4915848;29;20363;-64
2022/11/29 05:40:09;;;;;;;;;;;8.10;99.90;;;;;;4913943;29;20367;-65
2022/11/29 05:42:46;;;;;;;;;;;8.10;99.90;;;;;;4932519;29;19991;-64
2022/11/29 05:45:16;;;;;;;;;;;8.10;99.90;;;;;;4910177;29;19931;-64
2022/11/29 05:47:50;;;;;;;;;;;8.20;99.90;;;;;;4930603;29;20045;-64
2022/11/29 05:50:21;;;;;;;;;;;8.10;99.90;;;;;;4920091;29;19926;-64
2022/11/29 05:52:53;;;;;;;;;;;8.10;99.90;;;;;;4919929;29;19939;-65
2022/11/29 05:55:25;;;;;;;;;;;8.10;99.90;;;;;;4914563;29;19954;-63
2022/11/29 05:57:55;;;;;;;;;;;8.10;99.90;;;;;;4908727;29;19931;-63
2022/11/29 06:00:23;;;;;;;;;;;8.10;99.90;;;;;;4906404;29;19939;-69
2022/11/29 06:02:53;;;;;;;;;;;8.10;99.90;;;;;;4907509;29;19960;-65
2022/11/29 06:05:24;;;;;;;;;;;8.10;99.90;;;;;;4917115;29;19927;-64
2022/11/29 06:07:55;;;;;;;;;;;8.10;99.90;;;;;;4915098;29;19931;-65
2022/11/29 06:10:25;;;;;;;;;;;8.10;99.90;;;;;;4924634;29;20350;-64
2022/11/29 06:12:59;;;;;;;;;;;8.10;99.90;;;;;;4913010;29;19927;-65
2022/11/29 06:15:45;;;;;;;;;;;8.20;99.90;;;;;;4913890;29;19937;-66
2022/11/29 06:18:27;;;;;;;;;;;8.20;99.90;;;;;;4910286;29;20014;-64
2022/11/29 06:21:02;;;;;;;;;;;8.20;99.90;;;;;;4913655;29;19927;-64
2022/11/29 06:23:43;;;;;;;;;;;8.20;99.90;;;;;;4909261;29;19927;-65
2022/11/29 06:26:29;;;;;;;;;;;8.20;99.90;;;;;;4908299;29;19927;-66
2022/11/29 06:29:00;;;;;;;;;;;8.20;99.90;;;;;;4918540;29;19927;-64
2022/11/29 06:31:29;;;;;;;;;;;8.20;99.90;;;;;;4905947;29;19935;-65
2022/11/29 06:34:01;;;;;;;;;;;8.20;99.90;;;;;;4907170;29;19927;-65
2022/11/29 06:36:31;;;;;;;;;;;8.10;99.90;;;;;;4914252;29;19931;-65
2022/11/29 06:38:58;;;;;;;;;;;8.10;99.90;;;;;;4909062;29;19927;-65
2022/11/29 06:41:26;;;;;;;;;;;8.10;99.90;;;;;;4914313;29;20437;-65
2022/11/29 06:43:53;;;;;;;;;;;8.10;99.90;;;;;;4927643;29;19978;-65
2022/11/29 06:46:26;;;;;;;;;;;8.10;99.90;;;;;;4915640;29;20306;-66
2022/11/29 06:48:55;;;;;;;;;;;8.10;99.90;;;;;;4909701;29;20363;-65
2022/11/29 06:51:25;;;;;;;;;;;8.10;99.90;;;;;;4910151;29;19927;-65
2022/11/29 06:53:55;;;;;;;;;;;8.10;99.90;;;;;;4921934;29;20346;-65
2022/11/29 06:56:26;;;;;;;;;;;8.10;99.90;;;;;;4914962;29;20338;-66
2022/11/29 06:58:59;;;;;;;;;;;8.10;99.90;;;;;;4915032;29;19927;-65
2022/11/29 07:01:33;;;;;;;;;;;8.10;99.90;;;;;;4914280;29;19933;-65
2022/11/29 07:04:12;;;;;;;;;;;8.10;99.90;;;;;;4910388;29;19994;-65
2022/11/29 07:06:39;;;;;;;;;;;8.10;99.90;;;;;;4913687;29;19931;-65
2022/11/29 07:09:11;;;;;;;;;;;8.10;99.90;;;;;;4919604;29;19927;-65
2022/11/29 07:11:38;;;;;;;;;;;8.10;99.90;;;;;;4931652;29;20301;-64
2022/11/29 07:14:07;;;;;;;;;;;8.10;99.90;;;;;;4917758;29;19974;-64
2022/11/29 07:16:37;;;;;;;;;;;8.10;99.90;;;;;;4931156;29;19927;-64
2022/11/29 07:19:09;;;;;;;;;;;8.10;99.90;;;;;;4910172;29;19939;-66
2022/11/29 07:21:41;;;;;;;;;;;8.10;99.90;;;;;;4909179;29;20013;-65
2022/11/29 07:24:14;;;;;;;;;;;8.10;99.90;;;;;;4907612;29;19935;-65
2022/11/29 07:26:46;;;;;;;;;;;8.10;99.90;;;;;;4931567;29;20300;-65
2022/11/29 07:29:21;;;;;;;;;;;8.10;99.90;;;;;;4910193;29;19931;-65
2022/11/29 07:31:54;;;;;;;;;;;8.10;99.90;;;;;;4908557;29;19931;-65
2022/11/29 07:34:24;;;;;;;;;;;8.20;99.90;;;;;;4914490;29;19927;-66
2022/11/29 07:36:57;;;;;;;;;;;8.10;99.90;;;;;;4912237;29;19934;-65
2022/11/29 07:39:30;;;;;;;;;;;8.10;99.90;;;;;;4906627;29;20061;-65
2022/11/29 07:42:00;;;;;;;;;;;8.20;99.90;;;;;;4915498;29;19943;-65
2022/11/29 07:44:32;;;;;;;;;;;8.20;99.90;;;;;;4905508;29;19932;-67
2022/11/29 07:46:59;;;;;;;;;;;8.10;99.90;;;;;;4914200;29;19927;-66
2022/11/29 07:49:26;;;;;;;;;;;8.10;99.90;;;;;;4904718;29;19931;-65
2022/11/29 07:51:53;;;;;;;;;;;8.20;99.90;;;;;;4922261;29;19927;-65
2022/11/29 07:54:21;;;;;;;;;;;8.10;99.90;;;;;;4915886;29;19931;-65
2022/11/29 07:56:47;;;;;;;;;;;8.20;99.90;;;;;;4909550;29;19931;-65
2022/11/29 07:59:14;;;;;;;;;;;8.20;99.90;;;;;;4909680;29;19927;-66
2022/11/29 08:01:43;;;;;;;;;;;8.20;99.90;;;;;;4911222;29;19930;-65
2022/11/29 08:04:09;;;;;;;;;;;8.20;99.90;;;;;;4905775;29;19931;-65
2022/11/29 08:06:36;;;;;;;;;;;8.20;99.90;;;;;;4904865;29;20389;-65
2022/11/29 08:09:03;;;;;;;;;;;8.20;99.90;;;;;;4916062;29;20397;-65
2022/11/29 08:11:30;;;;;;;;;;;8.20;99.90;;;;;;4905685;29;19938;-65
2022/11/29 08:13:57;;;;;;;;;;;8.30;99.90;;;;;;4911010;29;19927;-66
2022/11/29 08:16:24;;;;;;;;;;;8.30;99.90;;;;;;4906277;29;19934;-65
2022/11/29 08:18:52;;;;;;;;;;;8.30;99.90;;;;;;4916406;29;19934;-66
2022/11/29 08:21:19;;;;;;;;;;;8.30;99.90;;;;;;4916668;29;19927;-65
2022/11/29 08:23:46;;;;;;;;;;;8.30;99.90;;;;;;4914408;29;19931;-65
2022/11/29 08:26:13;;;;;;;;;;;8.30;99.90;;;;;;4917110;29;19974;-65
2022/11/29 08:28:40;;;;;;;;;;;8.30;99.90;;;;;;4913402;29;20350;-65
2022/11/29 08:31:08;;;;;;;;;;;8.30;99.90;;;;;;4909174;29;19927;-65
2022/11/29 08:33:36;;;;;;;;;;;8.30;99.90;;;;;;4928057;29;19978;-65
2022/11/29 08:36:07;;;;;;;;;;;8.40;99.90;;;;;;4919106;29;19927;-66
2022/11/29 08:38:34;;;;;;;;;;;8.40;99.90;;;;;;4912795;29;19927;-65
2022/11/29 08:41:01;;;;;;;;;;;8.40;99.90;;;;;;4913652;29;19982;-65
2022/11/29 08:43:28;;;;;;;;;;;8.40;99.90;;;;;;4911751;29;20275;-65
2022/11/29 08:45:55;;;;;;;;;;;8.50;99.90;;;;;;4916832;29;19982;-65
2022/11/29 08:48:22;;;;;;;;;;;8.50;99.90;;;;;;4916315;29;19930;-63
2022/11/29 08:50:49;;;;;;;;;;;8.50;99.90;;;;;;4910774;29;20414;-65
2022/11/29 08:56:01;;;;;;;;;;;8.50;99.90;;;;;;4906023;29;20422;-65
2022/11/29 08:58:28;;;;;;;;;;;8.50;99.90;;;;;;4917109;29;19931;-64
2022/11/29 09:00:55;;;;;;;;;;;8.50;99.90;;;;;;4910074;29;19927;-65
2022/11/29 09:06:06;;;;;;;;;;;8.50;99.90;;;;;;4909568;29;19929;-65
2022/11/29 09:08:34;;;;;;;;;;;8.50;99.90;;;;;;4910315;29;20318;-64
2022/11/29 09:11:07;;;;;;;;;;;8.50;99.90;;;;;;4924773;28;20294;-64
2022/11/29 09:13:33;;;;;;;;;;;8.50;99.90;;;;;;4918836;29;19927;-64
2022/11/29 09:16:05;;;;;;;;;;;8.50;99.90;;;;;;4919686;29;19926;-66
2022/11/29 09:18:31;;;;;;;;;;;8.50;99.90;;;;;;4919067;29;19934;-66
2022/11/29 09:20:58;;;;;;;;;;;8.50;99.90;;;;;;4913176;29;19934;-66
2022/11/29 09:23:25;;;;;;;;;;;8.50;99.90;;;;;;4915456;29;19927;-65
2022/11/29 09:25:54;;;;;;;;;;;8.40;99.90;;;;;;4928670;29;20311;-65
2022/11/29 09:28:20;;;;;;;;;;;8.40;99.90;;;;;;4913872;29;19931;-65
2022/11/29 09:30:49;;;;;;;;;;;8.40;99.90;;;;;;4918049;29;19938;-65
2022/11/29 09:33:16;;;;;;;;;;;8.40;99.90;;;;;;4914046;29;20390;-66
2022/11/29 09:35:42;;;;;;;;;;;8.50;99.90;;;;;;4917543;29;19927;-66
2022/11/29 09:38:10;;;;;;;;;;;8.50;99.90;;;;;;4911529;29;20027;-65
2022/11/29 09:40:38;;;;;;;;;;;8.60;99.90;;;;;;4917716;29;20488;-65
2022/11/29 09:43:10;;;;;;;;;;;8.60;99.90;;;;;;4917961;29;20389;-65
2022/11/29 09:45:41;;;;;;;;;;;8.70;99.90;;;;;;4914536;29;20006;-64
2022/11/29 09:48:20;;;;;;;;;;;8.70;99.90;;;;;;4913984;29;19927;-64
2022/11/29 09:50:47;;;;;;;;;;;8.70;99.90;;;;;;4917032;29;20295;-65
2022/11/29 09:53:33;;;;;;;;;;;8.70;99.90;;;;;;4917733;29;19927;-65
2022/11/29 09:56:05;;;;;;;;;;;8.70;99.90;;;;;;4930537;29;20465;-66
2022/11/29 09:58:39;;;;;;;;;;;8.80;99.90;;;;;;4912817;29;20413;-64
2022/11/29 10:01:08;;;;;;;;;;;8.80;99.90;;;;;;4933266;29;19927;-66
2022/11/29 10:03:38;;;;;;;;;;;8.70;99.90;;;;;;4915055;29;19978;-65
2022/11/29 10:06:08;;;;;;;;;;;8.80;99.90;;;;;;4913282;29;19927;-64
2022/11/29 10:08:36;;;;;;;;;;;8.70;99.90;;;;;;4910351;29;20394;-65
2022/11/29 10:11:12;;;;;;;;;;;8.80;99.90;;;;;;4915137;29;20058;-65
2022/11/29 10:13:43;;;;;;;;;;;8.80;99.90;;;;;;4915616;29;19934;-65
2022/11/29 10:16:13;;;;;;;;;;;8.80;99.90;;;;;;4917426;29;19974;-65
2022/11/29 10:18:44;;;;;;;;;;;8.80;99.90;;;;;;4915452;29;19930;-65
2022/11/29 10:21:12;;;;;;;;;;;8.80;99.90;;;;;;4915088;29;19934;-65
2022/11/29 10:23:42;;;;;;;;;;;8.80;99.90;;;;;;4914456;29;20374;-66
2022/11/29 10:26:11;;;;;;;;;;;8.80;99.90;;;;;;4917594;29;19927;-65
2022/11/29 10:28:37;;;;;;;;;;;8.80;99.90;;;;;;4915379;29;20309;-66
2022/11/29 10:31:14;;;;;;;;;;;8.80;99.90;;;;;;4914964;29;19926;-65
2022/11/29 10:33:41;;;;;;;;;;;8.80;99.90;;;;;;4914335;29;19926;-66
2022/11/29 10:36:15;;;;;;;;;;;8.80;99.90;;;;;;4913169;29;19934;-66
2022/11/29 10:38:43;;;;;;;;;;;8.80;99.90;;;;;;4914252;29;19931;-65
2022/11/29 10:41:11;;;;;;;;;;;8.90;99.90;;;;;;4918211;29;19927;-66
2022/11/29 10:43:38;;;;;;;;;;;8.90;99.90;;;;;;4915829;29;19933;-65
2022/11/29 10:46:05;;;;;;;;;;;8.90;99.90;;;;;;4919421;29;19968;-65
2022/11/29 10:48:34;;;;;;;;;;;8.90;99.90;;;;;;4911833;29;19986;-65
2022/11/29 10:51:01;;;;;;;;;;;8.90;99.90;;;;;;4928827;29;19930;-66
2022/11/29 10:53:30;;;;;;;;;;;8.90;99.90;;;;;;4910688;29;19926;-66
2022/11/29 10:56:00;;;;;;;;;;;8.90;99.90;;;;;;4913972;29;19926;-65
2022/11/29 10:58:27;;;;;;;;;;;8.90;99.90;;;;;;4905002;29;19931;-66
2022/11/29 11:00:56;;;;;;;;;;;9.00;99.90;;;;;;4908986;29;19987;-66
2022/11/29 11:03:34;;;;;;;;;;;9.00;99.90;;;;;;4908141;29;19926;-66
2022/11/29 11:06:19;;;;;;;;;;;9.10;99.90;;;;;;4929339;29;20314;-66
2022/11/29 11:08:47;;;;;;;;;;;9.10;99.90;;;;;;4915585;29;19934;-67
2022/11/29 11:11:14;;;;;;;;;;;9.00;99.90;;;;;;4912995;29;19938;-66
2022/11/29 11:13:41;;;;;;;;;;;9.00;99.90;;;;;;4914281;29;19927;-65
2022/11/29 11:16:10;;;;;;;;;;;9.10;99.90;;;;;;4914430;29;19933;-65
2022/11/29 11:18:39;;;;;;;;;;;9.20;99.90;;;;;;4916156;29;19927;-64
2022/11/29 11:21:08;;;;;;;;;;;9.30;99.90;;;;;;4920004;29;19931;-65
2022/11/29 11:23:35;;;;;;;;;;;9.30;99.90;;;;;;4935384;29;19930;-65
2022/11/29 11:26:04;;;;;;;;;;;9.30;99.90;;;;;;4905472;29;19931;-66
2022/11/29 11:28:34;;;;;;;;;;;9.30;99.90;;;;;;4910386;29;19931;-66
2022/11/29 11:31:01;;;;;;;;;;;9.20;99.90;;;;;;4915343;29;19970;-66
2022/11/29 11:33:30;;;;;;;;;;;9.30;99.90;;;;;;4909450;29;19926;-65
2022/11/29 11:36:02;;;;;;;;;;;9.30;99.90;;;;;;4909047;29;19927;-65
2022/11/29 11:38:29;;;;;;;;;;;9.30;99.90;;;;;;4914303;29;19957;-65
2022/11/29 11:41:07;;;;;;;;;;;9.30;99.90;;;;;;4920833;29;19926;-65
2022/11/29 11:43:34;;;;;;;;;;;9.30;99.90;;;;;;4923147;29;19931;-66
2022/11/29 11:46:01;;;;;;;;;;;9.40;99.90;;;;;;4911797;29;19931;-65
2022/11/29 11:48:28;;;;;;;;;;;9.40;99.90;;;;;;4914428;29;19962;-66
2022/11/29 11:50:57;;;;;;;;;;;9.40;99.90;;;;;;4936817;29;20302;-65
2022/11/29 11:53:27;;;;;;;;;;;9.40;99.90;;;;;;4915637;29;19927;-65
2022/11/29 11:55:55;;;;;;;;;;;9.40;99.90;;;;;;4919213;29;19958;-65
2022/11/29 11:58:22;;;;;;;;;;;9.40;99.90;;;;;;4916077;29;19931;-65
2022/11/29 12:00:50;;;;;;;;;;;9.40;99.90;;;;;;4908785;29;19934;-66
2022/11/29 12:03:24;;;;;;;;;;;9.50;99.90;;;;;;4907921;29;19927;-65
2022/11/29 12:05:52;;;;;;;;;;;9.60;99.90;;;;;;4914959;29;19931;-65
2022/11/29 12:08:19;;;;;;;;;;;9.60;99.90;;;;;;4913315;29;20459;-65
2022/11/29 12:10:48;;;;;;;;;;;9.60;99.90;;;;;;4916895;29;19983;-65
2022/11/29 12:13:17;;;;;;;;;;;9.70;99.90;;;;;;4913078;29;19931;-65
2022/11/29 12:15:45;;;;;;;;;;;9.60;99.90;;;;;;4913666;29;19927;-65
2022/11/29 12:18:14;;;;;;;;;;;9.60;99.90;;;;;;4909657;29;19927;-66
2022/11/29 12:20:42;;;;;;;;;;;9.60;99.90;;;;;;4916362;29;19991;-65
2022/11/29 12:23:18;;;;;;;;;;;9.50;99.90;;;;;;4923834;29;19931;-65
2022/11/29 12:25:49;;;;;;;;;;;9.50;99.90;;;;;;4916707;29;19946;-66
2022/11/29 12:28:16;;;;;;;;;;;9.50;99.90;;;;;;4926516;29;19927;-66
2022/11/29 12:30:48;;;;;;;;;;;9.50;99.90;;;;;;4923451;29;19927;-65
2022/11/29 12:33:21;;;;;;;;;;;9.40;99.90;;;;;;4910595;29;19950;-65
2022/11/29 12:35:55;;;;;;;;;;;9.30;99.90;;;;;;4915782;29;19927;-66
2022/11/29 12:38:29;;;;;;;;;;;9.30;99.90;;;;;;4927953;29;19927;-66
2022/11/29 12:40:59;;;;;;;;;;;9.20;99.90;;;;;;4919061;29;19927;-65
2022/11/29 12:43:31;;;;;;;;;;;9.20;99.90;;;;;;4918765;29;19939;-66
2022/11/29 12:46:03;;;;;;;;;;;9.10;99.90;;;;;;4933723;29;19974;-65
2022/11/29 12:48:34;;;;;;;;;;;9.10;99.90;;;;;;4933886;29;19978;-65
2022/11/29 12:51:07;;;;;;;;;;;9.00;99.90;;;;;;4915440;29;19927;-66
2022/11/29 12:53:41;;;;;;;;;;;9.00;99.90;;;;;;4918083;29;19931;-65
2022/11/29 12:56:14;;;;;;;;;;;9.10;99.90;;;;;;4917717;29;19926;-66
2022/11/29 12:58:46;;;;;;;;;;;9.10;99.90;;;;;;4915713;29;19927;-66
2022/11/29 13:01:18;;;;;;;;;;;9.10;99.90;;;;;;4928491;29;19931;-64
2022/11/29 13:03:50;;;;;;;;;;;9.10;99.90;;;;;;4910695;29;19935;-64
2022/11/29 13:06:21;;;;;;;;;;;9.10;99.90;;;;;;4914291;29;20346;-66
2022/11/29 13:08:55;;;;;;;;;;;9.20;99.90;;;;;;4917094;29;19927;-66
2022/11/29 13:11:25;;;;;;;;;;;9.20;99.90;;;;;;4914824;29;19931;-66
2022/11/29 13:13:56;;;;;;;;;;;9.20;99.90;;;;;;4912942;29;19934;-64
2022/11/29 13:16:30;;;;;;;;;;;9.30;99.90;;;;;;4913972;29;20349;-66
2022/11/29 13:18:59;;;;;;;;;;;9.40;99.90;;;;;;4915472;29;19927;-66
2022/11/29 13:21:29;;;;;;;;;;;9.30;99.90;;;;;;4911247;29;19935;-66
2022/11/29 13:23:59;;;;;;;;;;;9.20;99.90;;;;;;4924867;29;20341;-66
2022/11/29 13:26:29;;;;;;;;;;;9.20;99.90;;;;;;4921137;29;19958;-66
2022/11/29 13:28:57;;;;;;;;;;;9.10;99.90;;;;;;4908075;29;19927;-65
2022/11/29 13:31:25;;;;;;;;;;;9.10;99.90;;;;;;4909537;29;19934;-67
2022/11/29 13:33:56;;;;;;;;;;;9.00;99.90;;;;;;4911145;29;19927;-66
2022/11/29 13:36:26;;;;;;;;;;;9.00;99.90;;;;;;4924612;29;20362;-66
2022/11/29 13:38:59;;;;;;;;;;;9.10;99.90;;;;;;4911291;29;19931;-65
2022/11/29 13:41:30;;;;;;;;;;;9.00;99.90;;;;;;4934938;29;19927;-66
2022/11/29 13:43:58;;;;;;;;;;;9.00;99.90;;;;;;4914270;29;20026;-64
2022/11/29 13:46:27;;;;;;;;;;;9.00;99.90;;;;;;4932181;29;19962;-67
2022/11/29 13:48:54;;;;;;;;;;;9.00;99.90;;;;;;4912093;29;20029;-66
2022/11/29 13:51:32;;;;;;;;;;;9.00;99.90;;;;;;4907208;29;19962;-66
2022/11/29 13:54:00;;;;;;;;;;;9.00;99.90;;;;;;4917641;29;20010;-66
2022/11/29 13:56:32;;;;;;;;;;;9.10;99.90;;;;;;4911441;29;19927;-65
2022/11/29 13:58:59;;;;;;;;;;;9.10;99.90;;;;;;4916753;29;19947;-66
2022/11/29 14:01:27;;;;;;;;;;;9.00;99.90;;;;;;4910874;29;20074;-66
2022/11/29 14:04:02;;;;;;;;;;;9.00;99.90;;;;;;4915257;29;19927;-65
2022/11/29 14:06:32;;;;;;;;;;;9.00;99.90;;;;;;4917080;29;19927;-66
2022/11/29 14:09:16;;;;;;;;;;;9.00;99.90;;;;;;4916968;29;20013;-66
2022/11/29 14:11:47;;;;;;;;;;;9.00;99.90;;;;;;4915816;29;19926;-65
2022/11/29 14:14:19;;;;;;;;;;;9.00;99.90;;;;;;4917072;29;20370;-67
2022/11/29 14:16:47;;;;;;;;;;;9.00;99.90;;;;;;4916500;29;19927;-65
2022/11/29 14:19:22;;;;;;;;;;;9.00;99.90;;;;;;4913548;29;20402;-65
2022/11/29 14:22:15;;;;;;;;;;;9.00;99.90;;;;;;4912346;29;19983;-65
2022/11/29 14:24:43;;;;;;;;;;;9.00;99.90;;;;;;4919435;29;19926;-65
2022/11/29 14:27:28;;;;;;;;;;;9.00;99.90;;;;;;4914215;29;20405;-65
2022/11/29 14:29:57;;;;;;;;;;;9.00;99.90;;;;;;4928464;29;19934;-66
2022/11/29 14:32:27;;;;;;;;;;;9.00;99.90;;;;;;4916164;29;19931;-66
2022/11/29 14:34:55;;;;;;;;;;;9.00;99.90;;;;;;4910334;29;19937;-65
2022/11/29 14:37:34;;;;;;;;;;;9.00;99.90;;;;;;4930941;29;19990;-65
2022/11/29 14:40:02;;;;;;;;;;;9.00;99.90;;;;;;4928859;29;19934;-65
2022/11/29 14:42:31;;;;;;;;;;;9.00;99.90;;;;;;4931861;29;20022;-66
2022/11/29 14:45:00;;;;;;;;;;;9.00;99.90;;;;;;4914126;29;19982;-66
2022/11/29 14:47:30;;;;;;;;;;;9.00;99.90;;;;;;4916609;29;19933;-66
2022/11/29 14:49:58;;;;;;;;;;;8.90;99.90;;;;;;4916608;29;19927;-66
2022/11/29 14:52:27;;;;;;;;;;;9.00;99.90;;;;;;4911398;29;19927;-66
2022/11/29 14:54:59;;;;;;;;;;;9.00;99.90;;;;;;4917702;29;20014;-66
2022/11/29 14:57:44;;;;;;;;;;;9.00;99.90;;;;;;4931960;29;19934;-65
2022/11/29 15:00:14;;;;;;;;;;;8.90;99.90;;;;;;4906192;29;19927;-65
2022/11/29 15:02:42;;;;;;;;;;;8.90;99.90;;;;;;4910204;29;20382;-66
2022/11/29 15:05:13;;;;;;;;;;;8.90;99.90;;;;;;4910994;29;19927;-66
2022/11/29 15:07:43;;;;;;;;;;;8.90;99.90;;;;;;4916178;29;19933;-66
2022/11/29 15:10:16;;;;;;;;;;;8.90;99.90;;;;;;4915206;29;20025;-67
2022/11/29 15:12:42;;;;;;;;;;;8.90;99.90;;;;;;4909956;29;19934;-66
2022/11/29 15:15:19;;;;;;;;;;;8.80;99.90;;;;;;4910389;29;19967;-66
2022/11/29 15:17:52;;;;;;;;;;;8.80;99.90;;;;;;4917810;29;19934;-64
2022/11/29 15:20:30;;;;;;;;;;;8.80;99.90;;;;;;4912537;29;19953;-66
2022/11/29 15:22:59;;;;;;;;;;;8.80;99.90;;;;;;4913603;29;19986;-66
2022/11/29 15:25:30;;;;;;;;;;;8.80;99.90;;;;;;4916849;29;19978;-65
2022/11/29 15:27:58;;;;;;;;;;;8.80;99.90;;;;;;4909293;29;20457;-65
2022/11/29 15:30:29;;;;;;;;;;;8.70;99.90;;;;;;4916087;29;20397;-66
2022/11/29 15:32:58;;;;;;;;;;;8.70;99.90;;;;;;4923333;29;19931;-66
2022/11/29 15:35:25;;;;;;;;;;;8.80;99.90;;;;;;4915039;29;19930;-66
2022/11/29 15:37:52;;;;;;;;;;;8.70;99.90;;;;;;4911153;29;19927;-65
2022/11/29 15:40:20;;;;;;;;;;;8.70;99.90;;;;;;4911076;29;19934;-65
2022/11/29 15:42:49;;;;;;;;;;;8.90;99.90;;;;;;4912584;29;19935;-65
2022/11/29 15:45:27;;;;;;;;;;;9.10;99.90;;;;;;4908325;29;19970;-64
2022/11/29 15:47:54;;;;;;;;;;;9.20;99.90;;;;;;4927371;29;19927;-64
2022/11/29 15:50:26;;;;;;;;;;;9.10;99.90;;;;;;4916325;29;19934;-65
2022/11/29 15:52:55;;;;;;;;;;;9.00;99.90;;;;;;4930993;29;19974;-63
2022/11/29 15:55:22;;;;;;;;;;;8.90;99.90;;;;;;4916235;29;19927;-64
2022/11/29 15:57:51;;;;;;;;;;;8.90;99.90;;;;;;4915971;29;19927;-65
2022/11/29 16:00:20;;;;;;;;;;;8.80;99.90;;;;;;4924414;29;19930;-65
2022/11/29 16:02:49;;;;;;;;;;;8.70;99.90;;;;;;4935022;23;19934;-64
2022/11/29 16:05:20;;;;;;;;;;;8.70;99.90;;;;;;4929797;29;19969;-64
2022/11/29 16:07:48;;;;;;;;;;;8.70;99.90;;;;;;4943917;29;20368;-64
2022/11/29 16:10:16;;;;;;;;;;;8.70;99.90;;;;;;4918650;29;20358;-65
2022/11/29 16:12:50;;;;;;;;;;;8.60;99.90;;;;;;4941383;28;19973;-64
2022/11/29 16:15:25;;;;;;;;;;;8.60;99.90;;;;;;4926300;29;19934;-64
2022/11/29 16:17:52;;;;;;;;;;;8.60;99.90;;;;;;4917880;29;19927;-64
2022/11/29 16:20:23;;;;;;;;;;;8.60;99.90;;;;;;4928372;29;20366;-66
2022/11/29 16:23:17;;;;;;;;;;;8.50;99.90;;;;;;4916474;29;19952;-64
2022/11/29 16:25:58;;;;;;;;;;;8.50;99.90;;;;;;4901909;29;20429;-63
2022/11/29 16:28:26;;;;;;;;;;;8.50;99.90;;;;;;4961100;28;19930;-64
2022/11/29 16:30:53;;;;;;;;;;;8.50;99.90;;;;;;4916843;29;19987;-64
2022/11/29 16:33:22;;;;;;;;;;;8.50;99.90;;;;;;4917043;29;19982;-64
2022/11/29 16:35:48;;;;;;;;;;;8.50;99.90;;;;;;4927521;29;19930;-64
2022/11/29 16:38:17;;;;;;;;;;;8.50;99.90;;;;;;4948592;28;20001;-64
2022/11/29 16:40:59;;;;;;;;;;;8.50;99.90;;;;;;4914272;29;20346;-65
2022/11/29 16:43:41;;;;;;;;;;;8.40;99.90;;;;;;4924779;29;20306;-64
2022/11/29 16:46:26;;;;;;;;;;;8.50;99.90;;;;;;4931204;29;19926;-64
2022/11/29 16:48:53;;;;;;;;;;;8.50;99.90;;;;;;4915257;29;19934;-64
2022/11/29 16:51:23;;;;;;;;;;;8.50;99.90;;;;;;4927599;29;19934;-64
2022/11/29 16:53:50;;;;;;;;;;;8.40;99.90;;;;;;4918050;29;20017;-64
2022/11/29 16:56:18;;;;;;;;;;;8.40;99.90;;;;;;4918948;29;19927;-64
2022/11/29 16:58:46;;;;;;;;;;;8.50;99.90;;;;;;4929355;29;20291;-64
2022/11/29 17:01:18;;;;;;;;;;;8.50;99.90;;;;;;4912906;29;19927;-64
2022/11/29 17:03:45;;;;;;;;;;;8.40;99.90;;;;;;4923053;29;19926;-64
2022/11/29 17:06:13;;;;;;;;;;;8.40;99.90;;;;;;4915381;29;19958;-64
2022/11/29 17:08:40;;;;;;;;;;;8.40;99.90;;;;;;4932799;29;19990;-64
2022/11/29 17:11:08;;;;;;;;;;;8.40;99.90;;;;;;4919787;29;19927;-63
2022/11/29 17:13:35;;;;;;;;;;;8.40;99.90;;;;;;4932697;29;20281;-65
2022/11/29 17:16:01;;;;;;;;;;;8.40;99.90;;;;;;4928239;29;19926;-63
2022/11/29 17:18:30;;;;;;;;;;;8.30;99.90;;;;;;4920369;29;19926;-64
2022/11/29 17:20:56;;;;;;;;;;;8.30;99.90;;;;;;4922119;29;19982;-64
2022/11/29 17:23:23;;;;;;;;;;;8.30;99.90;;;;;;4915156;29;19931;-65
2022/11/29 17:25:56;;;;;;;;;;;8.30;99.90;;;;;;4931792;29;20275;-71
2022/11/29 17:28:22;;;;;;;;;;;8.30;99.90;;;;;;4951023;28;19934;-71
2022/11/29 17:30:49;;;;;;;;;;;8.30;99.90;;;;;;4926580;29;19931;-64
2022/11/29 17:33:16;;;;;;;;;;;8.30;99.90;;;;;;4923203;29;19927;-64
2022/11/29 17:35:44;;;;;;;;;;;8.30;99.90;;;;;;4913332;29;19926;-65
2022/11/29 17:38:11;;;;;;;;;;;8.30;99.90;;;;;;4921144;29;20406;-64
2022/11/29 17:40:38;;;;;;;;;;;8.20;99.90;;;;;;4955987;28;20287;-64
2022/11/29 17:43:05;;;;;;;;;;;8.20;99.90;;;;;;4922210;29;19934;-64
2022/11/29 17:45:31;;;;;;;;;;;8.10;99.90;;;;;;4920104;29;19927;-65
2022/11/29 17:47:58;;;;;;;;;;;8.00;99.90;;;;;;4926335;29;19926;-65
2022/11/29 17:50:25;;;;;;;;;;;8.00;99.90;;;;;;4920736;29;19927;-64
2022/11/29 17:52:53;;;;;;;;;;;8.00;99.90;;;;;;4951087;28;19927;-64
2022/11/29 17:55:21;;;;;;;;;;;8.00;99.90;;;;;;4952466;28;19938;-64
2022/11/29 17:57:48;;;;;;;;;;;7.90;99.90;;;;;;4921102;29;19931;-64
2022/11/29 18:00:15;;;;;;;;;;;7.90;99.90;;;;;;4930880;29;19927;-64
2022/11/29 18:02:42;;;;;;;;;;;7.80;99.90;;;;;;4924699;29;19926;-64
2022/11/29 18:05:09;;;;;;;;;;;7.80;99.90;;;;;;4921686;29;19926;-64
2022/11/29 18:07:56;;;;;;;;;;;7.70;99.90;;;;;;4917458;29;19927;-63
2022/11/29 18:10:24;;;;;;;;;;;7.70;99.90;;;;;;4922036;29;19962;-64
2022/11/29 18:12:50;;;;;;;;;;;7.70;99.90;;;;;;4949093;28;19931;-64
2022/11/29 18:15:17;;;;;;;;;;;7.70;99.90;;;;;;4925061;29;19926;-64
2022/11/29 18:17:44;;;;;;;;;;;7.70;99.90;;;;;;4916936;29;19935;-63
2022/11/29 18:20:27;;;;;;;;;;;7.60;99.90;;;;;;5111039;27;19912;-63
2022/11/29 18:22:54;;;;;;;;;;;7.60;99.90;;;;;;5098770;28;19924;-64
2022/11/29 18:25:21;;;;;;;;;;;7.50;99.90;;;;;;5076859;28;19971;-64
2022/11/29 18:27:48;;;;;;;;;;;7.50;99.90;;;;;;5098555;28;19988;-64
2022/11/29 18:30:15;;;;;;;;;;;7.40;99.90;;;;;;5087493;28;20306;-65
2022/11/29 18:32:42;;;;;;;;;;;7.40;99.90;;;;;;5105052;28;19931;-64
2022/11/29 18:35:10;;;;;;;;;;;7.30;99.90;;;;;;5087949;28;19924;-64
2022/11/29 18:37:38;;;;;;;;;;;7.30;99.90;;;;;;5097873;28;20018;-65
2022/11/29 18:40:06;;;;;;;;;;;7.20;99.90;;;;;;5093493;28;20280;-65
2022/11/29 18:42:32;;;;;;;;;;;7.20;99.90;;;;;;5097962;28;19925;-65
2022/11/29 18:44:59;;;;;;;;;;;7.10;99.90;;;;;;5090667;28;20329;-65
2022/11/29 18:47:29;;;;;;;;;;;7.00;99.90;;;;;;5095179;28;19925;-64
2022/11/29 18:49:56;;;;;;;;;;;6.90;99.90;;;;;;5076415;28;20403;-66
2022/11/29 18:52:22;;;;;;;;;;;6.80;99.90;;;;;;5097415;28;19925;-65
2022/11/29 18:54:51;;;;;;;;;;;6.70;99.90;;;;;;5093131;28;19931;-64
2022/11/29 18:57:17;;;;;;;;;;;6.70;99.90;;;;;;5103514;28;19929;-65
2022/11/29 18:59:44;;;;;;;;;;;6.50;99.90;;;;;;5091085;28;19977;-65